createdAt,value
2022-11-29T00:00:28.878Z,26.48
2022-11-29T00:03:34.024Z,25.73
2022-11-29T00:06:36.333Z,26.02
2022-11-29T00:09:38.848Z,24.95
2022-11-29T00:12:40.998Z,25.98
2022-11-29T00:15:43.381Z,24.08
2022-11-29T00:18:45.503Z,24.63
2022-11-29T00:21:48.092Z,24.42
2022-11-29T00:24:50.217Z,24.70
2022-11-29T00:27:52.824Z,25.05
2022-11-29T00:30:55.137Z,26.77
2022-11-29T00:34:00.030Z,26.20
2022-11-29T00:37:02.169Z,25.62
2022-11-29T00:40:05.721Z,26.70
2022-11-29T00:43:07.861Z,25.48
2022-11-29T00:46:10.843Z,25.55
2022-11-29T00:49:13.094Z,25.05
2022-11-29T00:52:15.555Z,25.37
2022-11-29T00:55:17.804Z,24.75
2022-11-29T00:58:20.855Z,25.10
2022-11-29T01:01:23.088Z,24.30
2022-11-29T01:04:25.634Z,23.10
2022-11-29T01:07:27.823Z,24.90
2022-11-29T01:10:30.329Z,24.65
2022-11-29T01:13:33.831Z,24.05
2022-11-29T01:16:36.432Z,24.35
2022-11-29T01:19:39.121Z,22.23
2022-11-29T01:22:42.521Z,22.10
2022-11-29T01:25:44.633Z,21.50
2022-11-29T01:28:48.393Z,21.73
2022-11-29T01:31:50.518Z,21.17
2022-11-29T01:34:52.974Z,20.98
2022-11-29T01:37:55.402Z,21.23
2022-11-29T01:41:05.764Z,23.52
2022-11-29T01:44:30.664Z,22.52
2022-11-29T01:47:33.921Z,22.02
2022-11-29T01:50:38.596Z,21.50
2022-11-29T01:53:41.107Z,22.50
2022-11-29T01:56:45.268Z,22.55
2022-11-29T01:59:50.979Z,21.62
2022-11-29T02:03:03.677Z,21.27
2022-11-29T02:06:07.712Z,20.88
2022-11-29T02:09:22.150Z,21.02
2022-11-29T02:12:39.841Z,21.83
2022-11-29T02:15:50.759Z,20.48
2022-11-29T02:22:48.861Z,19.75
2022-11-29T02:26:45.155Z,20.35
2022-11-29T02:30:18.013Z,19.65
2022-11-29T02:33:39.284Z,19.90
2022-11-29T02:37:00.126Z,20.45
2022-11-29T02:40:11.573Z,19.90
2022-11-29T02:46:49.441Z,19.23
2022-11-29T02:50:11.041Z,18.50
2022-11-29T02:53:51.947Z,18.20
2022-11-29T02:57:00.032Z,20.65
2022-11-29T03:00:10.399Z,18.65
2022-11-29T03:03:23.604Z,17.80
2022-11-29T03:06:39.410Z,17.70
2022-11-29T03:09:46.388Z,16.87
2022-11-29T03:12:51.976Z,18.02
2022-11-29T03:16:31.345Z,16.50
2022-11-29T03:19:33.648Z,17.00
2022-11-29T03:22:46.933Z,17.17
2022-11-29T03:26:15.787Z,16.80
2022-11-29T03:29:48.144Z,16.52
2022-11-29T03:33:20.895Z,15.88
2022-11-29T03:36:51.900Z,17.10
2022-11-29T03:43:14.150Z,17.55
2022-11-29T03:46:36.664Z,17.83
2022-11-29T03:49:56.064Z,16.62
2022-11-29T03:53:16.784Z,16.62
2022-11-29T03:56:28.360Z,16.60
2022-11-29T03:59:50.337Z,16.73
2022-11-29T04:03:07.965Z,16.98
2022-11-29T04:06:24.345Z,16.67
2022-11-29T04:09:49.907Z,17.23
2022-11-29T04:13:14.355Z,18.85
2022-11-29T04:16:38.709Z,18.12
2022-11-29T04:20:10.353Z,17.80
2022-11-29T04:23:53.097Z,17.83
2022-11-29T04:27:02.040Z,17.62
2022-11-29T04:30:07.007Z,17.52
2022-11-29T04:33:28.189Z,17.90
2022-11-29T04:36:48.887Z,18.90
2022-11-29T04:40:11.518Z,19.75
2022-11-29T04:43:47.363Z,19.73
2022-11-29T04:46:55.853Z,18.00
2022-11-29T04:50:41.333Z,18.37
2022-11-29T04:54:22.036Z,19.27
2022-11-29T04:57:37.507Z,19.80
2022-11-29T05:00:50.515Z,19.87
2022-11-29T05:04:02.525Z,20.42
2022-11-29T05:07:23.913Z,19.05
2022-11-29T05:10:35.437Z,19.33
2022-11-29T05:14:15.508Z,18.98
2022-11-29T05:17:33.489Z,19.52
2022-11-29T05:20:51.538Z,19.48
2022-11-29T05:24:02.667Z,19.12
2022-11-29T05:27:14.189Z,18.70
2022-11-29T05:30:20.155Z,17.60
2022-11-29T05:33:47.301Z,17.30
2022-11-29T05:37:12.448Z,17.50
2022-11-29T05:40:40.513Z,16.90
2022-11-29T05:43:49.682Z,17.00
2022-11-29T05:47:02.191Z,16.55
2022-11-29T05:50:22.849Z,16.87
2022-11-29T05:53:36.586Z,18.20
2022-11-29T05:56:44.673Z,16.23
2022-11-29T05:59:50.265Z,16.02
2022-11-29T06:03:04.394Z,17.05
2022-11-29T06:06:24.760Z,17.75
2022-11-29T06:09:35.375Z,16.92
2022-11-29T06:12:38.806Z,16.83
2022-11-29T06:16:05.498Z,16.92
2022-11-29T06:19:34.375Z,16.87
2022-11-29T06:22:39.268Z,17.05
2022-11-29T06:25:48.552Z,17.70
2022-11-29T06:29:19.252Z,18.40
2022-11-29T06:32:21.981Z,18.27
2022-11-29T06:35:46.840Z,18.37
2022-11-29T06:38:49.598Z,19.02
2022-11-29T06:41:51.821Z,18.98
2022-11-29T06:44:54.646Z,18.40
2022-11-29T06:48:03.757Z,18.90
2022-11-29T06:51:31.368Z,19.55
2022-11-29T06:54:42.813Z,18.33
2022-11-29T06:58:21.746Z,18.30
2022-11-29T07:01:51.769Z,18.80
2022-11-29T07:05:14.825Z,18.42
2022-11-29T07:08:20.172Z,19.12
2022-11-29T07:11:22.978Z,19.87
2022-11-29T07:14:25.444Z,19.75
2022-11-29T07:17:56.248Z,19.05
2022-11-29T07:21:23.645Z,19.20
2022-11-29T07:24:56.455Z,19.35
2022-11-29T07:28:01.412Z,19.33
2022-11-29T07:31:28.575Z,20.98
2022-11-29T07:35:08.303Z,21.85
2022-11-29T07:38:28.394Z,22.62
2022-11-29T07:41:53.009Z,21.65
2022-11-29T07:44:55.262Z,22.23
2022-11-29T07:47:58.161Z,22.58
2022-11-29T07:51:01.603Z,22.50
2022-11-29T07:54:04.551Z,23.67
2022-11-29T07:57:07.041Z,22.70
2022-11-29T08:00:10.606Z,23.08
2022-11-29T08:03:13.596Z,20.73
2022-11-29T08:06:16.025Z,20.20
2022-11-29T08:09:18.185Z,21.10
2022-11-29T08:12:20.719Z,21.65
2022-11-29T08:15:25.332Z,21.10
2022-11-29T08:18:27.831Z,21.20
2022-11-29T08:21:30.084Z,22.55
2022-11-29T08:24:32.605Z,23.10
2022-11-29T08:27:35.982Z,22.62
2022-11-29T08:30:38.423Z,23.98
2022-11-29T08:33:45.385Z,21.33
2022-11-29T08:36:48.850Z,20.17
2022-11-29T08:39:51.127Z,20.25
2022-11-29T08:42:57.613Z,20.83
2022-11-29T08:45:59.823Z,21.65
2022-11-29T08:49:02.542Z,20.90
2022-11-29T08:52:23.525Z,21.85
2022-11-29T08:58:29.578Z,23.65
2022-11-29T09:01:32.002Z,24.63
2022-11-29T09:04:34.165Z,25.17
2022-11-29T09:07:37.228Z,24.90
2022-11-29T09:10:40.609Z,24.12
2022-11-29T09:13:45.692Z,21.30
2022-11-29T09:16:47.885Z,23.83
2022-11-29T09:19:50.654Z,23.30
2022-11-29T09:22:52.834Z,22.48
2022-11-29T09:25:55.835Z,24.10
2022-11-29T09:29:03.558Z,24.73
2022-11-29T09:32:06.536Z,24.85
2022-11-29T09:35:09.117Z,25.60
2022-11-29T09:38:12.932Z,26.33
2022-11-29T09:41:53.094Z,26.95
2022-11-29T09:45:10.454Z,24.80
2022-11-29T09:48:47.429Z,25.70
2022-11-29T09:52:08.269Z,26.08
2022-11-29T09:55:37.648Z,27.02
2022-11-29T09:58:48.943Z,26.45
2022-11-29T10:02:07.985Z,27.48
2022-11-29T10:05:20.587Z,28.55
2022-11-29T10:08:46.106Z,26.73
2022-11-29T10:12:17.441Z,27.95
2022-11-29T10:15:29.424Z,26.10
2022-11-29T10:18:40.843Z,25.83
2022-11-29T10:24:56.805Z,27.08
2022-11-29T10:28:01.705Z,26.87
2022-11-29T10:31:27.576Z,25.08
2022-11-29T10:34:31.410Z,23.42
2022-11-29T10:37:34.773Z,25.42
2022-11-29T10:40:39.780Z,25.48
2022-11-29T10:43:43.173Z,25.23
2022-11-29T10:46:45.380Z,25.20
2022-11-29T10:49:48.413Z,24.50
2022-11-29T10:52:52.064Z,24.23
2022-11-29T10:56:00.191Z,25.58
2022-11-29T10:59:07.793Z,24.73
2022-11-29T11:02:21.101Z,24.80
2022-11-29T11:05:26.581Z,26.33
2022-11-29T11:08:30.606Z,25.45
2022-11-29T11:11:33.803Z,25.95
2022-11-29T11:14:38.750Z,24.58
2022-11-29T11:17:55.638Z,25.45
2022-11-29T11:21:01.884Z,25.00
2022-11-29T11:24:04.232Z,23.15
2022-11-29T11:27:06.776Z,24.67
2022-11-29T11:30:22.337Z,24.25
2022-11-29T11:33:31.151Z,25.45
2022-11-29T11:36:33.309Z,24.25
2022-11-29T11:39:35.769Z,23.95
2022-11-29T11:42:40.969Z,24.58
2022-11-29T11:45:52.442Z,24.45
2022-11-29T11:48:54.995Z,25.10
2022-11-29T11:52:01.656Z,24.48
2022-11-29T11:55:25.492Z,26.65
2022-11-29T11:58:55.842Z,26.45
2022-11-29T12:01:58.073Z,25.20
2022-11-29T12:05:04.817Z,24.90
2022-11-29T12:08:11.028Z,24.45
2022-11-29T12:11:16.515Z,24.98
2022-11-29T12:14:28.786Z,25.33
2022-11-29T12:17:52.918Z,24.15
2022-11-29T12:21:00.347Z,25.75
2022-11-29T12:24:32.322Z,25.88
2022-11-29T12:27:34.641Z,24.50
2022-11-29T12:30:40.595Z,24.92
2022-11-29T12:33:57.750Z,24.95
2022-11-29T12:37:08.755Z,25.42
2022-11-29T12:40:23.567Z,24.95
2022-11-29T12:43:46.627Z,25.85
2022-11-29T12:47:34.109Z,25.17
2022-11-29T12:50:37.113Z,27.30
2022-11-29T12:53:42.430Z,25.75
2022-11-29T12:57:11.141Z,25.70
2022-11-29T13:00:16.565Z,26.05
2022-11-29T13:03:21.637Z,25.95
2022-11-29T13:06:39.528Z,27.52
2022-11-29T13:09:54.209Z,27.70
2022-11-29T13:13:03.365Z,25.80
2022-11-29T13:16:22.995Z,25.45
2022-11-29T13:19:33.530Z,26.83
2022-11-29T13:22:55.000Z,27.10
2022-11-29T13:26:00.604Z,26.67
2022-11-29T13:29:04.061Z,27.90
2022-11-29T13:32:14.663Z,28.23
2022-11-29T13:35:51.028Z,27.70
2022-11-29T13:39:11.676Z,27.60
2022-11-29T13:42:29.365Z,27.50
2022-11-29T13:45:47.790Z,28.62
2022-11-29T13:48:52.644Z,27.67
2022-11-29T13:52:05.626Z,29.15
2022-11-29T13:55:11.539Z,28.45
2022-11-29T13:58:28.907Z,28.45
2022-11-29T14:02:00.540Z,28.23
2022-11-29T14:05:04.580Z,28.20
2022-11-29T14:09:02.507Z,28.80
2022-11-29T14:12:18.460Z,28.08
2022-11-29T14:15:25.287Z,28.65
2022-11-29T14:18:49.676Z,27.77
2022-11-29T14:22:06.808Z,29.10
2022-11-29T14:25:49.785Z,28.08
2022-11-29T14:28:45.759Z,29.10
2022-11-29T14:31:52.827Z,27.35
2022-11-29T14:35:04.020Z,29.63
2022-11-29T14:38:31.134Z,29.02
2022-11-29T14:42:06.810Z,29.40
2022-11-29T14:45:25.970Z,27.67
2022-11-29T14:48:31.911Z,28.95
2022-11-29T14:51:34.925Z,28.58
2022-11-29T14:54:54.603Z,28.92
2022-11-29T14:57:57.606Z,29.83
2022-11-29T15:01:09.642Z,29.25
2022-11-29T15:04:13.138Z,29.60
2022-11-29T15:07:19.434Z,29.10
2022-11-29T15:10:27.113Z,27.73
2022-11-29T15:13:35.445Z,28.48
2022-11-29T15:16:47.129Z,28.95
2022-11-29T15:20:31.884Z,29.02
2022-11-29T15:23:43.924Z,30.55
2022-11-29T15:27:00.063Z,28.58
2022-11-29T15:30:33.279Z,28.75
2022-11-29T15:33:44.002Z,29.63
2022-11-29T15:36:46.504Z,28.52
2022-11-29T15:40:01.765Z,28.75
2022-11-29T15:43:17.566Z,29.20
2022-11-29T15:46:24.363Z,30.25
2022-11-29T15:49:28.507Z,30.15
2022-11-29T15:52:36.369Z,31.20
2022-11-29T15:55:38.984Z,29.77
2022-11-29T15:58:42.028Z,30.55
2022-11-29T16:01:47.176Z,30.48
2022-11-29T16:04:54.477Z,29.90
2022-11-29T16:08:00.365Z,28.62
2022-11-29T16:11:05.002Z,30.88
2022-11-29T16:14:17.512Z,29.87
2022-11-29T16:17:20.937Z,32.00
2022-11-29T16:20:25.452Z,31.42
2022-11-29T16:23:39.397Z,30.48
2022-11-29T16:26:45.298Z,30.88
2022-11-29T16:29:48.545Z,30.62
2022-11-29T16:33:00.429Z,28.80
2022-11-29T16:36:35.491Z,29.50
2022-11-29T16:39:38.715Z,29.20
2022-11-29T16:42:43.137Z,30.27
2022-11-29T16:45:45.472Z,29.42
2022-11-29T16:48:49.354Z,29.70
2022-11-29T16:51:53.740Z,30.73
2022-11-29T16:54:56.977Z,29.08
2022-11-29T16:57:59.140Z,29.50
2022-11-29T17:01:19.325Z,28.55
2022-11-29T17:04:23.475Z,29.25
2022-11-29T17:07:31.569Z,30.27
2022-11-29T17:10:33.857Z,30.85
2022-11-29T17:13:36.313Z,30.02
2022-11-29T17:16:39.343Z,30.92
2022-11-29T17:19:41.848Z,31.35
2022-11-29T17:22:43.954Z,30.60
2022-11-29T17:25:59.370Z,30.42
2022-11-29T17:29:01.495Z,29.48
2022-11-29T17:32:04.087Z,30.70
2022-11-29T17:35:06.409Z,29.17
2022-11-29T17:38:08.788Z,29.73
2022-11-29T17:41:16.268Z,28.83
2022-11-29T17:44:18.623Z,29.60
2022-11-29T17:47:20.757Z,29.67
2022-11-29T17:50:23.142Z,28.67
2022-11-29T17:53:25.508Z,29.10
2022-11-29T17:56:29.187Z,28.12
2022-11-29T17:59:31.420Z,29.37
2022-11-29T18:02:33.961Z,28.17
2022-11-29T18:05:36.495Z,28.50
2022-11-29T18:08:40.494Z,27.70
2022-11-29T18:11:48.738Z,30.33
2022-11-29T18:14:52.355Z,28.98
2022-11-29T18:17:54.884Z,28.90
2022-11-29T18:20:59.314Z,29.75
2022-11-29T18:24:03.806Z,30.12
2022-11-29T18:27:05.923Z,29.92
2022-11-29T18:30:08.976Z,29.87
2022-11-29T18:33:11.305Z,30.00
2022-11-29T18:36:19.585Z,29.85
2022-11-29T18:39:23.531Z,29.08
2022-11-29T18:42:25.904Z,30.65
2022-11-29T18:45:28.003Z,30.58
2022-11-29T18:48:30.455Z,31.17
2022-11-29T18:51:34.223Z,31.33
2022-11-29T18:54:36.690Z,31.45
2022-11-29T18:57:38.855Z,31.40
2022-11-29T19:00:42.485Z,33.22
2022-11-29T19:03:46.713Z,30.95
2022-11-29T19:06:49.367Z,31.85
2022-11-29T19:09:51.478Z,31.67
2022-11-29T19:12:54.893Z,32.90
2022-11-29T19:15:57.070Z,32.25
2022-11-29T19:19:01.239Z,32.42
2022-11-29T19:22:03.405Z,32.53
2022-11-29T19:25:06.347Z,32.15
2022-11-29T19:28:13.902Z,33.72
2022-11-29T19:31:19.199Z,32.75
2022-11-29T19:34:21.379Z,31.75
2022-11-29T19:37:23.884Z,32.63
2022-11-29T19:40:26.050Z,32.75
2022-11-29T19:43:28.459Z,30.85
2022-11-29T19:46:36.272Z,31.33
2022-11-29T19:49:43.561Z,31.92
2022-11-29T19:52:48.776Z,30.70
2022-11-29T19:55:51.177Z,31.73
2022-11-29T19:58:53.379Z,31.52
2022-11-29T20:01:55.892Z,30.52
2022-11-29T20:04:58.390Z,31.15
2022-11-29T20:08:00.649Z,30.73
2022-11-29T20:11:06.135Z,30.98
2022-11-29T20:14:10.401Z,30.42
2022-11-29T20:17:12.924Z,29.95
2022-11-29T20:20:15.560Z,29.15
2022-11-29T20:23:18.049Z,31.23
2022-11-29T20:26:20.924Z,29.65
2022-11-29T20:29:30.453Z,30.17
2022-11-29T20:32:34.856Z,30.55
2022-11-29T20:35:38.251Z,29.08
2022-11-29T20:38:53.867Z,28.65
2022-11-29T20:42:04.777Z,28.75
2022-11-29T20:45:09.051Z,27.42
2022-11-29T20:48:21.106Z,26.58
2022-11-29T20:51:30.348Z,26.80
2022-11-29T20:54:33.349Z,25.75
2022-11-29T20:57:38.345Z,25.73
2022-11-29T21:00:40.892Z,25.25
2022-11-29T21:03:43.202Z,23.52
2022-11-29T21:06:45.729Z,24.70
2022-11-29T21:09:47.942Z,23.95
2022-11-29T21:12:50.745Z,24.58
2022-11-29T21:15:53.625Z,24.48
2022-11-29T21:19:02.134Z,25.23
2022-11-29T21:22:07.441Z,24.83
2022-11-29T21:25:15.866Z,23.98
2022-11-29T21:28:18.508Z,23.40
2022-11-29T21:31:21.280Z,22.02
2022-11-29T21:34:23.423Z,23.38
2022-11-29T21:37:29.121Z,22.67
2022-11-29T21:40:32.572Z,22.67
2022-11-29T21:44:04.867Z,21.75
2022-11-29T21:46:57.344Z,21.27
2022-11-29T21:49:59.787Z,21.62
2022-11-29T21:53:01.940Z,21.23
2022-11-29T21:56:06.713Z,22.33
2022-11-29T21:59:08.789Z,21.48
2022-11-29T22:02:11.437Z,21.17
2022-11-29T22:05:14.091Z,20.67
2022-11-29T22:08:16.214Z,21.70
2022-11-29T22:11:30.766Z,20.67
2022-11-29T22:14:33.580Z,21.87
2022-11-29T22:17:36.008Z,20.75
2022-11-29T22:20:38.161Z,21.08
2022-11-29T22:23:40.791Z,21.25
2022-11-29T22:26:43.745Z,20.02
2022-11-29T22:29:46.269Z,20.70
2022-11-29T22:32:48.985Z,20.00
2022-11-29T22:35:51.386Z,21.20
2022-11-29T22:38:53.606Z,20.88
2022-11-29T22:41:55.956Z,20.42
2022-11-29T22:44:58.198Z,19.62
2022-11-29T22:48:00.718Z,19.65
2022-11-29T22:51:13.292Z,20.15
2022-11-29T22:54:16.487Z,19.85
2022-11-29T22:57:18.887Z,20.10
2022-11-29T23:00:21.415Z,19.48
2022-11-29T23:03:23.535Z,19.85
2022-11-29T23:06:38.043Z,20.00
2022-11-29T23:09:40.190Z,19.92
2022-11-29T23:12:44.476Z,19.37
2022-11-29T23:15:46.614Z,18.85
2022-11-29T23:18:49.734Z,20.10
2022-11-29T23:21:52.050Z,18.70
2022-11-29T23:24:54.499Z,19.05
2022-11-29T23:27:56.670Z,19.55
2022-11-29T23:30:59.308Z,18.87
2022-11-29T23:34:02.583Z,18.67
2022-11-29T23:37:04.987Z,19.35
2022-11-29T23:40:07.845Z,18.75
2022-11-29T23:43:10.298Z,18.77
2022-11-29T23:46:15.642Z,18.77
2022-11-29T23:49:18.517Z,19.33
2022-11-29T23:52:20.615Z,18.75
2022-11-29T23:55:24.594Z,19.37
2022-11-29T23:58:28.646Z,19.87
